Terminal Aerodrome Forecast
Issued by NWS

Home | Current Version | Previous Version | Text Only | Print | Product List | Glossary On
Versions: 1 2 3 4 5 6 7 8 9 10 11 12 13 14 15 16 17
997
FTUS43 KGRB 170246 AAA
TAFCWA
TAF AMD
KCWA 170246Z 1703/1724 07008KT 3SM -FZRA BR OVC007
     FM170400 07004KT 1 1/2SM -FZRA BR OVC005
     FM170800 03005KT 1 1/2SM -FZDZ BR OVC006
     FM171500 36005KT 5SM -SHSN BR OVC007
     FM171800 33006KT P6SM BKN025=

USA.gov is the U.S. government's official web portal to all federal, state and local government web resources and services.